Time;durP1;ratioP1;P1;durP2;ratioP2;P2;SDS_P1;SDS_P2;PMS_P1;PMS_P2;Temp;Humidity;BMP_temperature;BMP_pressure;BME280_temperature;BME280_humidity;BME280_pressure;Samples;Min_cycle;Max_cycle;Signal;HPM_P1;HPM_P2
2020/12/16 00:00:49;;;;;;;20.97;13.50;;;8.00;99.90;;;;;;5028620;28;20280;-91
2020/12/16 00:03:14;;;;;;;21.77;13.67;;;8.00;99.90;;;;;;5043846;28;20275;-90
2020/12/16 00:05:40;;;;;;;19.60;13.87;;;8.00;99.90;;;;;;5043686;28;20254;-89
2020/12/16 00:08:06;;;;;;;16.20;13.63;;;8.00;99.90;;;;;;5062022;28;20180;-89
2020/12/16 00:10:31;;;;;;;19.83;14.23;;;7.90;99.90;;;;;;5062319;28;20238;-90
2020/12/16 00:12:57;;;;;;;15.57;12.73;;;7.90;99.90;;;;;;5044147;28;20705;-91
2020/12/16 00:15:23;;;;;;;27.77;13.73;;;7.80;99.90;;;;;;5044026;28;20176;-90
2020/12/16 00:17:52;;;;;;;23.23;13.80;;;7.80;99.90;;;;;;5044210;28;20180;-89
2020/12/16 00:20:18;;;;;;;14.37;12.33;;;7.80;99.90;;;;;;5044052;28;20195;-89
2020/12/16 00:22:44;;;;;;;16.87;13.43;;;7.80;99.90;;;;;;5043858;28;20192;-90
2020/12/16 00:25:10;;;;;;;15.83;12.77;;;7.80;99.90;;;;;;5062022;28;20606;-90
2020/12/16 00:27:37;;;;;;;14.43;12.93;;;7.80;99.90;;;;;;5061852;28;20169;-90
2020/12/16 00:30:07;;;;;;;18.87;14.20;;;7.80;99.90;;;;;;5073218;28;20255;-88
2020/12/16 00:32:38;;;;;;;26.73;14.23;;;7.70;99.90;;;;;;5052881;28;20318;-89
2020/12/16 00:35:08;;;;;;;16.50;12.77;;;7.80;99.90;;;;;;5061800;28;20263;-90
2020/12/16 00:37:41;;;;;;;15.00;12.33;;;7.70;99.90;;;;;;5068044;28;20187;-89
2020/12/16 00:40:10;;;;;;;16.07;12.53;;;7.60;99.90;;;;;;5060302;28;20178;-88
2020/12/16 00:42:36;;;;;;;24.30;13.63;;;7.60;99.90;;;;;;5047937;28;20250;-90
2020/12/16 00:45:07;;;;;;;53.27;14.60;;;7.70;99.90;;;;;;5043674;28;20568;-90
2020/12/16 00:47:33;;;;;;;19.70;13.07;;;7.70;99.90;;;;;;5062031;28;20234;-90
2020/12/16 00:49:59;;;;;;;13.60;12.20;;;7.70;99.90;;;;;;5043179;28;20184;-90
2020/12/16 00:52:28;;;;;;;14.27;12.77;;;7.70;99.90;;;;;;5061254;28;20237;-90
2020/12/16 00:54:54;;;;;;;13.80;12.17;;;7.70;99.90;;;;;;5043785;28;20188;-89
2020/12/16 00:57:20;;;;;;;15.43;12.07;;;7.60;99.90;;;;;;5063097;28;20180;-90
2020/12/16 00:59:46;;;;;;;12.40;11.20;;;7.60;99.90;;;;;;5062148;28;20187;-90
2020/12/16 01:02:11;;;;;;;31.53;14.70;;;7.60;99.90;;;;;;5042994;28;20765;-90
2020/12/16 01:04:37;;;;;;;15.43;12.60;;;7.70;99.90;;;;;;5060991;28;20234;-90
2020/12/16 01:07:03;;;;;;;24.60;13.47;;;7.70;99.90;;;;;;5061006;28;20647;-90
2020/12/16 01:09:28;;;;;;;16.53;12.97;;;7.80;99.90;;;;;;5061273;28;20200;-90
2020/12/16 01:11:54;;;;;;;15.50;12.53;;;7.70;99.90;;;;;;5059812;28;20659;-89
2020/12/16 01:14:20;;;;;;;13.50;12.00;;;7.60;99.90;;;;;;5061163;28;20597;-89
2020/12/16 01:16:45;;;;;;;13.07;11.60;;;7.50;99.90;;;;;;5060925;28;20579;-89
2020/12/16 01:19:11;;;;;;;16.17;11.20;;;7.50;99.90;;;;;;5060863;28;20199;-89
2020/12/16 01:21:37;;;;;;;11.57;10.37;;;7.50;99.90;;;;;;5061193;28;20204;-91
2020/12/16 01:24:08;;;;;;;79.17;12.60;;;7.50;99.90;;;;;;5061130;28;20184;-90
2020/12/16 01:26:46;;;;;;;24.67;10.87;;;7.60;99.90;;;;;;5060559;28;20173;-89
2020/12/16 01:29:13;;;;;;;65.83;12.87;;;7.70;99.90;;;;;;5060079;28;20174;-91
2020/12/16 01:31:40;;;;;;;68.47;12.57;;;7.90;99.90;;;;;;5042359;28;20254;-89
2020/12/16 01:34:06;;;;;;;11.57;9.53;;;7.80;99.90;;;;;;5060170;28;20583;-89
2020/12/16 01:36:32;;;;;;;23.60;9.10;;;7.70;99.90;;;;;;5060124;28;20204;-89
2020/12/16 01:38:58;;;;;;;15.23;9.50;;;7.80;99.90;;;;;;5060348;28;20708;-91
2020/12/16 01:41:24;;;;;;;9.67;8.73;;;7.80;99.90;;;;;;5060875;28;20180;-88
2020/12/16 01:43:50;;;;;;;20.20;8.97;;;7.70;99.90;;;;;;5060330;28;20270;-88
2020/12/16 01:46:16;;;;;;;11.27;9.40;;;7.60;99.90;;;;;;5076233;28;20206;-89
2020/12/16 01:48:42;;;;;;;10.00;9.00;;;7.50;99.90;;;;;;5060477;28;20188;-89
2020/12/16 01:51:17;;;;;;;11.10;9.60;;;7.50;99.90;;;;;;5061465;28;20597;-88
2020/12/16 01:53:45;;;;;;;10.63;8.97;;;7.60;99.90;;;;;;5061713;28;20172;-88
2020/12/16 01:56:12;;;;;;;18.50;9.17;;;7.60;99.90;;;;;;5043557;28;20330;-88
2020/12/16 01:58:42;;;;;;;8.27;7.47;;;7.70;99.90;;;;;;5075876;28;20264;-89
2020/12/16 02:01:09;;;;;;;26.97;8.60;;;7.70;99.90;;;;;;5041902;28;20321;-90
2020/12/16 02:03:38;;;;;;;8.47;7.60;;;7.70;99.90;;;;;;5061051;28;20180;-89
2020/12/16 02:06:08;;;;;;;24.57;8.50;;;7.60;99.90;;;;;;5058565;28;20686;-89
2020/12/16 02:08:38;;;;;;;15.20;7.43;;;7.70;99.90;;;;;;5059675;28;20268;-88
2020/12/16 02:11:08;;;;;;;22.33;8.10;;;7.70;99.90;;;;;;5041899;28;20208;-89
2020/12/16 02:13:33;;;;;;;27.27;8.50;;;7.80;99.90;;;;;;5059507;28;20177;-89
2020/12/16 02:15:59;;;;;;;33.07;8.43;;;7.80;99.90;;;;;;5075189;28;20186;-89
2020/12/16 02:18:25;;;;;;;24.40;8.67;;;7.80;99.90;;;;;;5075243;28;20678;-89
2020/12/16 02:20:51;;;;;;;13.20;8.40;;;7.80;99.90;;;;;;5059694;28;20204;-89
2020/12/16 02:23:26;;;;;;;9.47;7.87;;;7.70;99.90;;;;;;5059361;28;20204;-89
2020/12/16 02:25:52;;;;;;;13.00;8.27;;;7.70;99.90;;;;;;5059765;28;20171;-91
2020/12/16 02:28:18;;;;;;;45.37;10.00;;;7.70;99.90;;;;;;5061588;28;20663;-89
2020/12/16 02:30:44;;;;;;;30.37;9.23;;;7.50;99.90;;;;;;5063041;28;20208;-88
2020/12/16 02:33:09;;;;;;;37.13;8.73;;;7.30;99.90;;;;;;5062087;28;20311;-88
2020/12/16 02:35:35;;;;;;;13.20;7.57;;;7.20;99.90;;;;;;5079065;28;20172;-89
2020/12/16 02:38:01;;;;;;;7.83;7.03;;;7.10;99.90;;;;;;5063263;28;20222;-88
2020/12/16 02:40:27;;;;;;;9.43;7.63;;;7.20;99.90;;;;;;5063115;28;20173;-89
2020/12/16 02:42:53;;;;;;;8.40;7.43;;;7.20;99.90;;;;;;5078284;28;20250;-89
2020/12/16 02:45:18;;;;;;;7.90;7.10;;;7.20;99.90;;;;;;5078363;28;20176;-88
2020/12/16 02:47:44;;;;;;;8.40;7.50;;;7.20;99.90;;;;;;5078238;28;20203;-89
2020/12/16 02:50:09;;;;;;;7.73;6.93;;;7.30;99.90;;;;;;5078376;28;20185;-89
2020/12/16 02:52:35;;;;;;;9.53;8.30;;;7.50;99.90;;;;;;5062575;28;20270;-89
2020/12/16 02:55:01;;;;;;;8.00;7.20;;;7.50;99.90;;;;;;5064168;28;20184;-90
2020/12/16 02:57:27;;;;;;;9.67;7.87;;;7.50;99.90;;;;;;5078900;28;20184;-88
2020/12/16 02:59:57;;;;;;;7.63;6.93;;;7.50;99.90;;;;;;5078988;28;20561;-89
2020/12/16 03:02:23;;;;;;;7.27;6.60;;;7.40;99.90;;;;;;5066826;28;20483;-89
2020/12/16 03:04:49;;;;;;;8.30;7.47;;;7.50;99.90;;;;;;5063879;28;20184;-89
2020/12/16 03:07:15;;;;;;;8.30;6.87;;;7.40;99.90;;;;;;5088653;28;20185;-89
2020/12/16 03:09:40;;;;;;;23.67;8.20;;;7.40;99.90;;;;;;5071840;28;20204;-89
2020/12/16 03:12:06;;;;;;;23.70;7.57;;;7.40;99.90;;;;;;5062740;28;20242;-89
2020/12/16 03:14:32;;;;;;;8.10;7.30;;;7.40;99.90;;;;;;5065682;28;20727;-91
2020/12/16 03:16:57;;;;;;;7.93;7.13;;;7.30;99.90;;;;;;5079045;28;20175;-91
2020/12/16 03:19:23;;;;;;;9.87;6.83;;;7.40;99.90;;;;;;5073963;28;20185;-89
2020/12/16 03:21:49;;;;;;;8.73;7.13;;;7.60;99.90;;;;;;5078647;28;20238;-89
2020/12/16 03:24:14;;;;;;;9.13;7.50;;;7.60;99.90;;;;;;5078745;28;20180;-89
2020/12/16 03:26:41;;;;;;;8.33;7.10;;;7.60;99.90;;;;;;5061423;28;20261;-89
2020/12/16 03:29:07;;;;;;;8.43;7.60;;;7.70;99.90;;;;;;5045293;28;20184;-89
2020/12/16 03:31:32;;;;;;;9.63;6.93;;;7.80;99.90;;;;;;5044744;28;20226;-89
2020/12/16 03:33:58;;;;;;;8.30;6.60;;;7.70;99.90;;;;;;5062904;28;20219;-89
2020/12/16 03:36:24;;;;;;;8.00;7.20;;;7.50;99.90;;;;;;5062587;28;20242;-89
2020/12/16 03:38:50;;;;;;;9.03;7.30;;;7.50;99.90;;;;;;5077013;28;20236;-88
2020/12/16 03:41:16;;;;;;;15.50;7.57;;;7.50;99.90;;;;;;5077755;28;20272;-89
2020/12/16 03:43:46;;;;;;;32.97;9.23;;;7.50;99.90;;;;;;5062411;28;20177;-89
2020/12/16 03:46:12;;;;;;;11.33;6.60;;;7.30;99.90;;;;;;5044067;28;20192;-89
2020/12/16 03:48:40;;;;;;;11.60;7.90;;;7.30;99.90;;;;;;5061172;28;20250;-89
2020/12/16 03:51:13;;;;;;;10.57;7.40;;;7.30;99.90;;;;;;5062067;28;20243;-89
2020/12/16 03:53:40;;;;;;;8.70;6.90;;;7.40;99.90;;;;;;5060142;28;20173;-89
2020/12/16 03:56:07;;;;;;;8.20;7.30;;;7.40;99.90;;;;;;5077831;28;20191;-89
2020/12/16 03:58:34;;;;;;;7.53;6.73;;;7.70;99.90;;;;;;5044389;28;20279;-90
2020/12/16 04:01:06;;;;;;;8.27;7.10;;;7.60;99.90;;;;;;5062123;28;20233;-89
2020/12/16 04:03:32;;;;;;;8.27;7.47;;;7.60;99.90;;;;;;5077130;28;20194;-89
2020/12/16 04:05:59;;;;;;;8.10;7.17;;;7.60;99.90;;;;;;5061914;28;20247;-89
2020/12/16 04:08:24;;;;;;;12.53;7.87;;;7.60;99.90;;;;;;5077268;28;20185;-88
2020/12/16 04:10:50;;;;;;;7.57;6.87;;;7.70;99.90;;;;;;5077141;28;20274;-89
2020/12/16 04:13:16;;;;;;;8.10;7.30;;;7.70;99.90;;;;;;5060862;28;20295;-88
2020/12/16 04:15:45;;;;;;;8.37;7.27;;;7.60;99.90;;;;;;5078494;28;20195;-89
2020/12/16 04:18:11;;;;;;;8.23;6.87;;;7.60;99.90;;;;;;5078828;28;20180;-89
2020/12/16 04:20:37;;;;;;;8.80;7.33;;;7.50;99.90;;;;;;5076271;28;20688;-89
2020/12/16 04:23:06;;;;;;;11.47;7.57;;;7.50;99.90;;;;;;5076480;28;20776;-88
2020/12/16 04:25:33;;;;;;;8.77;7.70;;;7.50;99.90;;;;;;5061729;28;20191;-90
2020/12/16 04:27:59;;;;;;;7.03;6.33;;;7.60;99.90;;;;;;5061927;28;20180;-90
2020/12/16 04:30:24;;;;;;;7.50;6.70;;;7.60;99.90;;;;;;5060518;28;20244;-89
2020/12/16 04:32:51;;;;;;;11.57;7.67;;;7.60;99.90;;;;;;5077228;28;20222;-90
2020/12/16 04:35:18;;;;;;;11.87;7.80;;;7.60;99.90;;;;;;5044216;28;20609;-89
2020/12/16 04:37:48;;;;;;;9.50;7.60;;;7.70;99.90;;;;;;5044324;28;20567;-89
2020/12/16 04:40:14;;;;;;;12.77;7.97;;;7.70;99.90;;;;;;5077453;28;20236;-89
2020/12/16 04:42:41;;;;;;;7.83;7.03;;;7.70;99.90;;;;;;5062155;28;20218;-89
2020/12/16 04:45:07;;;;;;;9.50;8.03;;;7.60;99.90;;;;;;5062463;28;20195;-89
2020/12/16 04:47:33;;;;;;;11.57;7.67;;;7.70;99.90;;;;;;5062726;28;20184;-89
2020/12/16 04:49:59;;;;;;;9.07;7.13;;;7.70;99.90;;;;;;5077819;28;20196;-90
2020/12/16 04:52:27;;;;;;;25.43;9.43;;;7.50;99.90;;;;;;5060611;28;20216;-90
2020/12/16 04:54:54;;;;;;;9.23;7.77;;;7.70;99.90;;;;;;5077592;28;20180;-90
2020/12/16 04:57:22;;;;;;;8.37;7.50;;;7.70;99.90;;;;;;5060166;28;20252;-90
2020/12/16 04:59:47;;;;;;;30.17;8.43;;;7.70;99.90;;;;;;5077046;28;20180;-89
2020/12/16 05:02:13;;;;;;;72.43;11.17;;;7.50;99.90;;;;;;5059414;28;20278;-89
2020/12/16 05:04:39;;;;;;;27.27;9.03;;;7.40;99.90;;;;;;5076529;28;20185;-89
2020/12/16 05:07:05;;;;;;;11.33;8.20;;;7.40;99.90;;;;;;5060758;28;20585;-89
2020/12/16 05:09:30;;;;;;;24.77;9.50;;;7.40;99.90;;;;;;5060728;28;20184;-90
2020/12/16 05:11:57;;;;;;;20.13;9.17;;;7.30;99.90;;;;;;5078443;28;20216;-89
2020/12/16 05:14:24;;;;;;;10.50;9.00;;;7.30;99.90;;;;;;5079226;28;20208;-90
2020/12/16 05:16:55;;;;;;;13.17;8.37;;;7.40;99.90;;;;;;5045617;28;20176;-91
2020/12/16 05:19:30;;;;;;;12.77;8.90;;;7.40;99.90;;;;;;5061966;28;20169;-90
2020/12/16 05:22:17;;;;;;;11.67;8.60;;;7.50;99.90;;;;;;5044504;28;20203;-90
2020/12/16 05:24:44;;;;;;;9.20;7.70;;;7.50;99.90;;;;;;5063066;28;20203;-90
2020/12/16 05:27:18;;;;;;;9.47;8.07;;;7.50;99.90;;;;;;5062387;28;20728;-89
2020/12/16 05:29:44;;;;;;;10.53;8.97;;;7.40;99.90;;;;;;5061966;28;20184;-89
2020/12/16 05:32:14;;;;;;;15.80;8.20;;;7.50;99.90;;;;;;5042251;28;20220;-89
2020/12/16 05:34:40;;;;;;;27.63;17.73;;;7.50;99.90;;;;;;5058947;28;20181;-89
2020/12/16 05:37:41;;;;;;;22.77;20.47;;;7.60;99.90;;;;;;5058841;28;20287;-89
2020/12/16 05:40:10;;;;;;;20.00;17.70;;;7.60;99.90;;;;;;5016864;28;20205;-90
2020/12/16 05:42:36;;;;;;;26.37;11.20;;;7.60;99.90;;;;;;5051600;28;20216;-90
2020/12/16 05:45:15;;;;;;;12.60;10.67;;;7.50;99.90;;;;;;5064239;28;20188;-89
2020/12/16 05:47:55;;;;;;;13.47;9.40;;;7.40;99.90;;;;;;5058871;28;20171;-90
2020/12/16 05:50:21;;;;;;;41.73;9.50;;;7.40;99.90;;;;;;5042305;28;20176;-89
2020/12/16 05:52:47;;;;;;;12.23;7.73;;;7.30;99.90;;;;;;5060540;28;20582;-90
2020/12/16 05:55:28;;;;;;;9.67;8.07;;;7.40;99.90;;;;;;5075789;28;20188;-88
2020/12/16 05:58:12;;;;;;;10.00;8.73;;;7.40;99.90;;;;;;5054643;28;20165;-89
2020/12/16 06:00:57;;;;;;;21.40;9.37;;;7.40;99.90;;;;;;5043779;28;20247;-89
2020/12/16 06:03:30;;;;;;;12.40;9.43;;;7.50;99.90;;;;;;5064483;28;20200;-89
2020/12/16 06:05:58;;;;;;;11.43;9.67;;;7.50;99.90;;;;;;5065744;28;20168;-88
2020/12/16 06:08:27;;;;;;;11.10;9.87;;;7.40;99.90;;;;;;5063084;28;20172;-88
2020/12/16 06:10:53;;;;;;;11.23;8.93;;;7.50;99.90;;;;;;5062951;28;20222;-89
2020/12/16 06:13:20;;;;;;;12.53;10.07;;;7.40;99.90;;;;;;5077331;28;20215;-88
2020/12/16 06:15:47;;;;;;;21.13;11.53;;;7.50;99.90;;;;;;5063556;28;20196;-90
2020/12/16 06:18:17;;;;;;;36.30;12.30;;;7.50;99.90;;;;;;5063750;28;20306;-89
2020/12/16 06:20:43;;;;;;;12.53;10.47;;;7.50;99.90;;;;;;5062420;28;20176;-89
2020/12/16 06:23:39;;;;;;;13.23;10.63;;;7.50;99.90;;;;;;5063347;28;20196;-89
2020/12/16 06:26:13;;;;;;;14.00;9.77;;;7.50;99.90;;;;;;5061928;28;20220;-88
2020/12/16 06:28:40;;;;;;;10.40;8.87;;;7.40;99.90;;;;;;5064172;28;20172;-89
2020/12/16 06:31:19;;;;;;;12.67;9.10;;;7.40;99.90;;;;;;5078899;28;20702;-90
2020/12/16 06:34:05;;;;;;;11.70;9.43;;;7.50;99.90;;;;;;5078982;28;20173;-89
2020/12/16 06:36:34;;;;;;;17.90;9.43;;;7.40;99.90;;;;;;5062021;28;20196;-89
2020/12/16 06:39:00;;;;;;;9.93;8.80;;;7.30;99.90;;;;;;5061594;28;20187;-88
2020/12/16 06:41:26;;;;;;;10.53;9.13;;;7.40;99.90;;;;;;5063282;28;20180;-89
2020/12/16 06:43:55;;;;;;;13.97;11.90;;;7.50;99.90;;;;;;5045253;28;20196;-88
2020/12/16 06:46:40;;;;;;;30.57;14.17;;;7.50;99.90;;;;;;5078588;28;20191;-88
2020/12/16 06:49:08;;;;;;;15.63;12.50;;;7.70;99.90;;;;;;5062832;28;20206;-89
2020/12/16 06:51:45;;;;;;;12.13;10.83;;;7.70;99.90;;;;;;5045777;28;20223;-89
2020/12/16 06:54:15;;;;;;;10.13;9.17;;;7.80;99.90;;;;;;5064076;28;20159;-88
2020/12/16 06:56:43;;;;;;;16.53;11.60;;;7.70;99.90;;;;;;5062513;28;20168;-89
2020/12/16 06:59:11;;;;;;;12.57;11.03;;;7.70;99.90;;;;;;5063607;28;20176;-89
2020/12/16 07:01:37;;;;;;;19.17;9.47;;;7.70;99.90;;;;;;5045799;28;20200;-89
2020/12/16 07:04:02;;;;;;;12.17;8.87;;;7.60;99.90;;;;;;5079099;28;20192;-89
2020/12/16 07:06:28;;;;;;;24.40;10.10;;;7.50;99.90;;;;;;5066100;28;20659;-89
2020/12/16 07:09:15;;;;;;;33.70;11.80;;;7.50;99.90;;;;;;5074064;28;20175;-90
2020/12/16 07:11:43;;;;;;;10.27;9.17;;;7.40;99.90;;;;;;5055530;28;20219;-90
2020/12/16 07:14:11;;;;;;;18.23;10.03;;;7.40;99.90;;;;;;5063062;28;20232;-90
2020/12/16 07:16:37;;;;;;;11.33;10.13;;;7.60;99.90;;;;;;5077911;28;20180;-90
2020/12/16 07:19:03;;;;;;;20.70;10.77;;;7.60;99.90;;;;;;5082455;28;20206;-91
2020/12/16 07:21:33;;;;;;;11.77;9.57;;;7.50;99.90;;;;;;5050900;28;20268;-90
2020/12/16 07:24:02;;;;;;;10.40;8.90;;;7.60;99.90;;;;;;5048407;28;20184;-89
2020/12/16 07:26:33;;;;;;;23.47;10.33;;;7.60;99.90;;;;;;5065398;28;20215;-89
2020/12/16 07:29:16;;;;;;;30.03;10.77;;;7.60;99.90;;;;;;5044091;28;20328;-90
2020/12/16 07:31:53;;;;;;;42.30;9.67;;;7.40;99.90;;;;;;5055995;28;20280;-90
2020/12/16 07:34:19;;;;;;;15.13;9.43;;;7.20;99.90;;;;;;5060052;28;20179;-89
2020/12/16 07:36:52;;;;;;;15.00;9.20;;;7.30;99.90;;;;;;5043099;28;20205;-90
2020/12/16 07:39:18;;;;;;;9.07;7.33;;;7.50;99.90;;;;;;5066539;28;20180;-90
2020/12/16 07:41:45;;;;;;;25.30;9.97;;;7.60;99.90;;;;;;5066601;28;20263;-89
2020/12/16 07:44:11;;;;;;;53.97;10.50;;;7.50;99.90;;;;;;5067704;28;20188;-90
2020/12/16 07:46:36;;;;;;;19.03;9.50;;;7.20;99.90;;;;;;5028601;28;20194;-89
2020/12/16 07:49:02;;;;;;;10.83;8.50;;;7.10;99.90;;;;;;5084419;28;20202;-89
2020/12/16 07:51:28;;;;;;;15.77;9.47;;;7.20;99.90;;;;;;5062636;28;20283;-90
2020/12/16 07:53:53;;;;;;;16.63;8.83;;;7.30;99.90;;;;;;5078100;28;20187;-90
2020/12/16 07:56:20;;;;;;;13.57;9.80;;;7.30;99.90;;;;;;5062721;28;20188;-90
2020/12/16 07:58:47;;;;;;;13.30;9.60;;;7.30;99.90;;;;;;5062747;28;20176;-90
2020/12/16 08:01:14;;;;;;;17.23;11.17;;;7.30;99.90;;;;;;5062508;28;20188;-90
2020/12/16 08:03:41;;;;;;;22.00;11.47;;;7.20;99.90;;;;;;5062702;28;20248;-90
2020/12/16 08:06:07;;;;;;;13.13;10.73;;;7.20;99.90;;;;;;5063970;28;20192;-89
2020/12/16 08:08:59;;;;;;;11.37;9.50;;;7.10;99.90;;;;;;5069937;28;20567;-90
2020/12/16 08:11:27;;;;;;;15.83;11.50;;;7.30;99.90;;;;;;5054399;28;20201;-89
2020/12/16 08:14:04;;;;;;;13.93;10.60;;;7.50;99.90;;;;;;5073962;28;20186;-90
2020/12/16 08:16:34;;;;;;;13.37;10.90;;;7.60;99.90;;;;;;5055053;28;20192;-90
2020/12/16 08:19:01;;;;;;;12.87;10.90;;;7.60;99.90;;;;;;5054517;28;20194;-89
2020/12/16 08:21:26;;;;;;;11.37;10.17;;;7.60;99.90;;;;;;5067231;28;20224;-90
2020/12/16 08:23:54;;;;;;;12.00;9.97;;;7.60;99.90;;;;;;5052143;28;20290;-89
2020/12/16 08:26:22;;;;;;;11.90;9.80;;;7.70;99.90;;;;;;5083647;28;20236;-89
2020/12/16 08:28:48;;;;;;;9.83;8.17;;;7.80;99.90;;;;;;5077290;28;20237;-90
2020/12/16 08:31:18;;;;;;;11.47;9.10;;;7.80;99.90;;;;;;5052471;28;20204;-90
2020/12/16 08:33:47;;;;;;;9.83;8.17;;;7.80;99.90;;;;;;5079778;28;20175;-89
2020/12/16 08:36:19;;;;;;;10.10;8.97;;;7.80;99.60;;;;;;5071516;28;20184;-89
2020/12/16 08:38:49;;;;;;;12.10;9.63;;;7.80;99.90;;;;;;5077181;28;20191;-90
2020/12/16 08:41:24;;;;;;;9.57;8.53;;;7.80;99.90;;;;;;5051985;28;20188;-90
2020/12/16 08:43:50;;;;;;;13.67;10.53;;;7.70;99.90;;;;;;5074240;28;20255;-90
2020/12/16 08:46:18;;;;;;;13.57;10.67;;;7.90;99.90;;;;;;5054055;28;20206;-89
2020/12/16 08:48:52;;;;;;;19.47;15.40;;;8.00;99.90;;;;;;5074122;28;20593;-89
2020/12/16 08:51:23;;;;;;;13.10;10.80;;;8.10;99.90;;;;;;5072305;28;20214;-89
2020/12/16 08:54:18;;;;;;;11.57;10.37;;;8.10;99.30;;;;;;5060415;28;20318;-89
2020/12/16 08:56:53;;;;;;;11.47;10.00;;;8.10;99.40;;;;;;5058176;28;20215;-89
2020/12/16 08:59:28;;;;;;;11.57;9.60;;;8.00;99.90;;;;;;5063001;28;20183;-89
2020/12/16 09:02:07;;;;;;;10.80;9.70;;;7.80;99.90;;;;;;5074496;28;20731;-89
2020/12/16 09:04:37;;;;;;;11.27;10.07;;;7.80;99.90;;;;;;5064347;28;20695;-90
2020/12/16 09:07:12;;;;;;;11.87;9.50;;;7.80;99.90;;;;;;5065453;28;20203;-89
2020/12/16 09:09:40;;;;;;;13.20;10.57;;;8.00;99.90;;;;;;5076264;28;20199;-89
2020/12/16 09:12:14;;;;;;;13.17;11.60;;;8.20;99.90;;;;;;5047769;28;20228;-89
2020/12/16 09:15:14;;;;;;;12.33;11.00;;;8.20;99.90;;;;;;5044474;28;20222;-88
2020/12/16 09:17:40;;;;;;;12.67;11.37;;;8.40;99.10;;;;;;5042062;28;20208;-89
2020/12/16 09:20:12;;;;;;;13.07;11.63;;;8.40;98.50;;;;;;5069496;28;20199;-89
2020/12/16 09:22:37;;;;;;;12.47;11.17;;;8.40;99.50;;;;;;5071774;28;20214;-88
2020/12/16 09:25:03;;;;;;;12.20;10.97;;;8.50;98.80;;;;;;5069181;28;20255;-90
2020/12/16 09:27:29;;;;;;;13.13;11.73;;;8.60;99.30;;;;;;5071344;28;20191;-88
2020/12/16 09:29:55;;;;;;;13.70;12.30;;;8.70;98.80;;;;;;5073093;28;20287;-88
2020/12/16 09:32:25;;;;;;;13.27;11.90;;;8.70;99.50;;;;;;5073759;28;20215;-90
2020/12/16 09:34:53;;;;;;;15.17;13.60;;;8.80;98.60;;;;;;5071442;28;20180;-89
2020/12/16 09:37:28;;;;;;;12.40;11.17;;;8.80;98.60;;;;;;5057515;28;20267;-89
2020/12/16 09:40:11;;;;;;;13.63;11.80;;;8.70;99.90;;;;;;5074136;28;20247;-89
2020/12/16 09:42:38;;;;;;;11.07;9.97;;;8.60;99.90;;;;;;5063652;28;20682;-89
2020/12/16 09:45:15;;;;;;;8.40;7.70;;;8.60;99.90;;;;;;5071486;28;20194;-88
2020/12/16 09:47:45;;;;;;;9.23;8.13;;;8.70;99.90;;;;;;5073200;28;20183;-89
2020/12/16 09:50:11;;;;;;;9.87;8.87;;;8.70;99.90;;;;;;5080597;28;20252;-89
2020/12/16 09:52:39;;;;;;;10.13;8.40;;;8.90;98.80;;;;;;5058253;28;20246;-88
2020/12/16 09:55:16;;;;;;;9.23;8.43;;;8.90;99.30;;;;;;5057147;28;20207;-90
2020/12/16 09:57:43;;;;;;;8.30;7.60;;;8.80;98.80;;;;;;5069634;28;20196;-90
2020/12/16 10:00:10;;;;;;;8.20;7.40;;;8.80;99.80;;;;;;5057135;28;20244;-88
2020/12/16 10:02:36;;;;;;;7.90;7.10;;;8.80;99.10;;;;;;5074507;28;20209;-90
2020/12/16 10:05:03;;;;;;;8.17;7.37;;;9.00;99.10;;;;;;5057823;28;20267;-89
2020/12/16 10:07:33;;;;;;;8.03;7.33;;;9.20;97.70;;;;;;5060849;28;20180;-89
2020/12/16 10:10:00;;;;;;;9.47;8.03;;;9.20;97.20;;;;;;5077595;28;20258;-89
2020/12/16 10:12:26;;;;;;;10.60;9.63;;;9.20;97.10;;;;;;5079828;28;20208;-89
2020/12/16 10:14:52;;;;;;;10.70;9.60;;;9.00;98.00;;;;;;5057310;28;20663;-89
2020/12/16 10:17:24;;;;;;;11.43;10.43;;;8.90;99.10;;;;;;5072274;28;20180;-89
2020/12/16 10:19:51;;;;;;;11.47;10.37;;;9.00;99.80;;;;;;5076516;28;20668;-89
2020/12/16 10:22:17;;;;;;;11.10;10.03;;;9.00;99.60;;;;;;5081204;28;20264;-89
2020/12/16 10:24:42;;;;;;;11.73;10.53;;;9.10;98.60;;;;;;5059010;28;20222;-89
2020/12/16 10:27:08;;;;;;;39.20;13.77;;;9.00;99.60;;;;;;5064190;28;20255;-88
2020/12/16 10:29:34;;;;;;;16.63;13.60;;;8.80;99.70;;;;;;5061273;28;20241;-88
2020/12/16 10:32:00;;;;;;;13.80;12.37;;;8.80;99.90;;;;;;5082167;28;20243;-88
2020/12/16 10:34:25;;;;;;;13.43;12.13;;;8.90;99.90;;;;;;5079661;28;20187;-90
2020/12/16 10:36:53;;;;;;;13.13;11.83;;;9.00;99.90;;;;;;5083035;28;20223;-88
2020/12/16 10:39:20;;;;;;;12.73;11.43;;;9.30;98.90;;;;;;5056969;28;20192;-89
2020/12/16 10:41:52;;;;;;;12.70;11.50;;;9.50;98.10;;;;;;5077784;28;20226;-88
2020/12/16 10:44:19;;;;;;;11.63;10.53;;;9.50;96.80;;;;;;5080498;28;20180;-89
2020/12/16 10:46:46;;;;;;;12.50;11.37;;;9.50;97.50;;;;;;5058692;28;20180;-90
2020/12/16 10:49:12;;;;;;;12.10;11.00;;;9.60;95.80;;;;;;5076626;28;20681;-89
2020/12/16 10:51:37;;;;;;;13.10;12.03;;;9.50;96.50;;;;;;5081338;28;20216;-88
2020/12/16 10:54:04;;;;;;;14.30;13.10;;;9.40;97.50;;;;;;5060389;28;20180;-89
2020/12/16 10:56:29;;;;;;;13.73;12.53;;;9.30;99.00;;;;;;5065395;28;20210;-89
2020/12/16 10:58:55;;;;;;;13.23;12.03;;;9.50;97.70;;;;;;5056684;28;20189;-88
2020/12/16 11:01:21;;;;;;;14.17;12.77;;;9.60;96.10;;;;;;5082230;28;20202;-89
2020/12/16 11:03:47;;;;;;;15.17;13.67;;;9.50;97.40;;;;;;5071418;28;20255;-89
2020/12/16 11:06:15;;;;;;;14.33;13.03;;;9.50;98.20;;;;;;5065323;28;20211;-89
2020/12/16 11:08:44;;;;;;;14.00;12.80;;;9.60;99.20;;;;;;5079103;28;20179;-89
2020/12/16 11:11:10;;;;;;;16.77;15.27;;;10.10;96.30;;;;;;5062596;28;20216;-88
2020/12/16 11:13:36;;;;;;;14.97;13.57;;;10.20;95.40;;;;;;5072690;28;20184;-88
2020/12/16 11:16:02;;;;;;;17.17;15.57;;;10.20;95.20;;;;;;5069848;28;20192;-89
2020/12/16 11:18:28;;;;;;;18.50;16.83;;;10.20;96.70;;;;;;5073520;28;20244;-89
2020/12/16 11:20:54;;;;;;;18.00;16.43;;;10.20;96.50;;;;;;5081454;28;20195;-89
2020/12/16 11:23:20;;;;;;;17.70;15.93;;;10.00;97.70;;;;;;5079597;28;20706;-89
2020/12/16 11:25:45;;;;;;;19.00;17.10;;;10.10;97.50;;;;;;5076698;28;20463;-89
2020/12/16 11:28:11;;;;;;;17.80;16.00;;;10.20;97.00;;;;;;5059179;28;20575;-89
2020/12/16 11:30:37;;;;;;;17.83;15.87;;;10.30;95.80;;;;;;5062014;28;20234;-90
2020/12/16 11:33:03;;;;;;;17.87;16.07;;;10.40;95.70;;;;;;5076189;28;20306;-89
2020/12/16 11:35:28;;;;;;;17.87;16.07;;;10.30;95.50;;;;;;5056848;28;20200;-88
2020/12/16 11:37:54;;;;;;;19.13;17.23;;;10.20;96.30;;;;;;5031580;28;20201;-87
2020/12/16 11:40:20;;;;;;;19.83;17.17;;;10.10;96.90;;;;;;5032543;28;20664;-87
2020/12/16 11:42:45;;;;;;;19.43;17.53;;;10.10;95.90;;;;;;5067885;28;20217;-88
2020/12/16 11:45:11;;;;;;;19.67;17.77;;;10.10;95.60;;;;;;5065380;28;20177;-88
2020/12/16 11:47:37;;;;;;;18.70;16.80;;;10.00;95.80;;;;;;5073066;28;20235;-90
2020/12/16 11:50:10;;;;;;;19.60;17.67;;;9.80;96.60;;;;;;5039333;28;20222;-89
2020/12/16 11:52:37;;;;;;;19.17;17.37;;;9.70;97.80;;;;;;5074580;28;20238;-90
2020/12/16 11:55:04;;;;;;;20.50;18.50;;;9.60;97.80;;;;;;5059039;28;20196;-91
2020/12/16 11:57:30;;;;;;;18.90;16.97;;;9.50;99.40;;;;;;5078970;28;20183;-90
2020/12/16 11:59:55;;;;;;;18.47;16.40;;;9.50;99.90;;;;;;5079851;28;20223;-90
2020/12/16 12:02:21;;;;;;;17.00;15.27;;;9.60;99.90;;;;;;5065182;28;20196;-90
2020/12/16 12:04:47;;;;;;;16.50;14.80;;;9.80;99.20;;;;;;5052954;28;20196;-90
2020/12/16 12:07:13;;;;;;;18.87;15.60;;;9.80;97.80;;;;;;5079947;28;20183;-90
2020/12/16 12:09:38;;;;;;;17.83;15.17;;;9.80;97.20;;;;;;5084600;28;20183;-91
2020/12/16 12:12:04;;;;;;;15.30;13.70;;;9.80;97.30;;;;;;5058567;28;20223;-90
2020/12/16 12:14:30;;;;;;;18.60;14.27;;;9.80;97.60;;;;;;5057600;28;20321;-90
2020/12/16 12:16:57;;;;;;;23.17;18.07;;;9.80;98.20;;;;;;5078724;28;20266;-90
2020/12/16 12:19:23;;;;;;;20.10;16.50;;;9.80;98.10;;;;;;5056869;28;20181;-90
2020/12/16 12:21:49;;;;;;;18.33;16.53;;;9.80;97.70;;;;;;5055969;28;20222;-91
2020/12/16 12:24:15;;;;;;;15.27;13.77;;;9.80;98.30;;;;;;5074402;28;20224;-90
2020/12/16 12:26:41;;;;;;;13.83;12.43;;;9.80;97.90;;;;;;5077506;28;20180;-91
2020/12/16 12:29:06;;;;;;;13.47;12.17;;;9.80;97.90;;;;;;5077341;28;20282;-91
2020/12/16 12:31:33;;;;;;;12.77;11.47;;;9.80;97.70;;;;;;5061137;28;20221;-89
2020/12/16 12:33:58;;;;;;;13.73;12.50;;;9.80;98.20;;;;;;5057011;28;20203;-89
2020/12/16 12:36:25;;;;;;;21.90;19.63;;;9.80;97.80;;;;;;5076792;28;20205;-90
2020/12/16 12:38:50;;;;;;;14.93;13.43;;;9.70;98.10;;;;;;5069421;28;20185;-90
2020/12/16 12:41:16;;;;;;;16.27;14.73;;;9.80;98.00;;;;;;5056143;28;20176;-90
2020/12/16 12:43:42;;;;;;;18.43;16.80;;;9.80;97.80;;;;;;5055227;28;20193;-90
2020/12/16 12:46:10;;;;;;;18.83;17.03;;;9.60;99.00;;;;;;5077052;28;20216;-90
2020/12/16 12:48:36;;;;;;;15.33;13.73;;;9.80;98.90;;;;;;5054458;28;20193;-90